Guedel 3 — FGG8104 — position and weather

sailwx.info

Track history (hours):
 
Tides and Currents Weather Stations Pressure Air Temp Water Temp Dewpoint Dewpoint Depression Visibility Wind Speed Wind Dir Waves Ship Positions

Guedel 3

Last reported at 2018-Feb-21 10:48 UTC. Time now 2018-Feb-25 15:19 UTC.
Position N 47°38' W 002°46'.

Length 40 m; draft 1.9 m.

MMSI: 227051650.

Date/timePositionNaut miles runAvg speedWind from/ knotsBaromVisibWave heightAir tempDewpointWater temp
2018-Feb-21 10:48N 47°38' W 002°46'1 3.8
2018-Feb-21 10:31N 47°38' W 002°47'4 7.2
2018-Feb-21 10:00N 47°36' W 002°52'4 7.6
2018-Feb-21 09:30N 47°33' W 002°55'4 8.4
2018-Feb-21 09:00N 47°29' W 002°58'5 9.1
2018-Feb-21 08:30N 47°26' W 003°03'4 8.7
2018-Feb-21 08:00N 47°23' W 003°07'2 0.2
2018-Feb-20 16:40N 47°21' W 003°09'0 2.3
2018-Feb-20 16:30N 47°21' W 003°09'0 0.0
2018-Feb-20 16:00N 47°21' W 003°09'3 5.9
2018-Feb-20 15:30N 47°24' W 003°06'4 7.9
2018-Feb-20 15:00N 47°27' W 003°02'4 8.0
2018-Feb-20 14:30N 47°29' W 002°58'4 8.9
2018-Feb-20 14:00N 47°33' W 002°55'510.3
2018-Feb-20 13:31N 47°37' W 002°49'3 5.7
2018-Feb-20 13:00N 47°38' W 002°46'0 0.7
2018-Feb-20 12:30N 47°38' W 002°46'0 0.0
2018-Feb-20 12:00N 47°38' W 002°46'0 0.0
2018-Feb-20 11:30N 47°38' W 002°46'0 0.0
2018-Feb-20 11:00N 47°38' W 002°46'0 0.0
2018-Feb-20 10:30N 47°38' W 002°46'0 0.0
2018-Feb-20 10:00N 47°38' W 002°46'0 0.0
2018-Feb-20 09:30N 47°38' W 002°46'2 3.3
2018-Feb-20 09:00N 47°37' W 002°47'4 8.1
2018-Feb-20 08:31N 47°35' W 002°52'4 8.9
2018-Feb-20 08:00N 47°31' W 002°56'5 9.3
2018-Feb-20 07:30N 47°28' W 003°00'4 8.9
2018-Feb-20 07:01N 47°24' W 003°05'4 8.9
2018-Feb-20 06:30N 47°21' W 003°09'0 0.0
2018-Feb-19 16:01N 47°21' W 003°09'0 2.0
2018-Feb-19 15:59N 47°21' W 003°09'0 0.8
2018-Feb-19 15:30N 47°21' W 003°09'0 0.0
2018-Feb-19 15:00N 47°21' W 003°09'0 0.0
2018-Feb-19 14:30N 47°21' W 003°09'0 0.0
2018-Feb-19 14:00N 47°21' W 003°09'3 5.2
2018-Feb-19 13:30N 47°23' W 003°07'4 8.6
2018-Feb-19 13:01N 47°27' W 003°02'4 8.8
2018-Feb-19 12:30N 47°30' W 002°58'510.5
2018-Feb-19 12:01N 47°34' W 002°54'510.0
2018-Feb-19 11:30N 47°37' W 002°48'2 4.1
2018-Feb-19 11:00N 47°38' W 002°46'0 0.0
2018-Feb-19 10:30N 47°38' W 002°46'  
2018-Feb-16 09:25N 47°38' W 002°46'0 0.0
2018-Feb-16 09:00N 47°38' W 002°46'0 0.0
2018-Feb-16 08:30N 47°38' W 002°46'0 0.0
2018-Feb-14 20:03N 47°38' W 002°46'0 0.8
2018-Feb-14 20:00N 47°38' W 002°46'3 5.5
2018-Feb-14 19:30N 47°37' W 002°49'4 7.3
2018-Feb-14 19:01N 47°34' W 002°53'3 5.2
2018-Feb-14 18:30N 47°32' W 002°55'4 8.5
2018-Feb-14 18:01N 47°29' W 002°59'4 8.6
2018-Feb-14 17:30N 47°26' W 003°04'4 8.6
2018-Feb-14 17:00N 47°23' W 003°08'2 0.7
2018-Feb-14 14:03N 47°21' W 003°09'0 4.0
2018-Feb-14 14:01N 47°21' W 003°09'0 0.9
2018-Feb-14 13:30N 47°21' W 003°09'0 0.0
2018-Feb-14 13:00N 47°21' W 003°09'0 0.5
2018-Feb-14 12:30N 47°21' W 003°09'4 8.0
2018-Feb-14 12:00N 47°25' W 003°05'3 6.2
2018-Feb-14 11:31N 47°26' W 003°01'3 6.9
2018-Feb-14 11:00N 47°29' W 002°58'4 7.2
2018-Feb-14 10:31N 47°32' W 002°55'5 9.4
2018-Feb-14 10:00N 47°36' W 002°52'4 7.9
2018-Feb-14 09:30N 47°38' W 002°46'1 0.0
2018-Feb-13 15:41N 47°38' W 002°46'0 0.7
2018-Feb-13 15:30N 47°38' W 002°46'3 6.8
2018-Feb-13 15:00N 47°37' W 002°50'510.0
2018-Feb-13 14:31N 47°33' W 002°55'5 9.1
2018-Feb-13 14:00N 47°29' W 002°58'510.0
2018-Feb-13 13:30N 47°26' W 003°04'4 7.6
2018-Feb-13 13:00N 47°23' W 003°08'2 0.2
2018-Feb-13 00:17N 47°21' W 003°09'1 1.9
2018-Feb-13 00:00N 47°21' W 003°09'0 0.0
2018-Feb-12 23:30N 47°21' W 003°09'0 0.0
2018-Feb-12 23:00N 47°21' W 003°09'3 5.9
2018-Feb-12 22:30N 47°24' W 003°07'4 8.1
2018-Feb-12 22:00N 47°27' W 003°02'4 8.4
2018-Feb-12 21:30N 47°29' W 002°58'4 8.7
2018-Feb-12 21:00N 47°33' W 002°55'5 9.5
2018-Feb-12 20:30N 47°37' W 002°50'3 6.1
2018-Feb-12 20:00N 47°38' W 002°46'1 1.2
2018-Feb-12 19:30N 47°38' W 002°46'  
Track history (hours):
 
Tides and Currents Weather Stations Pressure Air Temp Water Temp Dewpoint Dewpoint Depression Visibility Wind Speed Wind Dir Waves Ship Positions

Guedel 3

Last reported at 2018-Feb-21 10:48 UTC. Time now 2018-Feb-25 15:19 UTC.
Position N 47°38' W 002°46'.

Length 40 m; draft 1.9 m.

MMSI: 227051650.

Date/timePositionNaut miles runAvg speedWind from/ knotsBaromVisibWave heightAir tempDewpointWater temp
2018-Feb-21 10:48N 47°38' W 002°46'1 3.8
2018-Feb-21 10:31N 47°38' W 002°47'4 7.2
2018-Feb-21 10:00N 47°36' W 002°52'4 7.6
2018-Feb-21 09:30N 47°33' W 002°55'4 8.4
2018-Feb-21 09:00N 47°29' W 002°58'5 9.1
2018-Feb-21 08:30N 47°26' W 003°03'4 8.7
2018-Feb-21 08:00N 47°23' W 003°07'2 0.2
2018-Feb-20 16:40N 47°21' W 003°09'0 2.3
2018-Feb-20 16:30N 47°21' W 003°09'0 0.0
2018-Feb-20 16:00N 47°21' W 003°09'3 5.9
2018-Feb-20 15:30N 47°24' W 003°06'4 7.9
2018-Feb-20 15:00N 47°27' W 003°02'4 8.0
2018-Feb-20 14:30N 47°29' W 002°58'4 8.9
2018-Feb-20 14:00N 47°33' W 002°55'510.3
2018-Feb-20 13:31N 47°37' W 002°49'3 5.7
2018-Feb-20 13:00N 47°38' W 002°46'0 0.7
2018-Feb-20 12:30N 47°38' W 002°46'0 0.0
2018-Feb-20 12:00N 47°38' W 002°46'0 0.0
2018-Feb-20 11:30N 47°38' W 002°46'0 0.0
2018-Feb-20 11:00N 47°38' W 002°46'0 0.0
2018-Feb-20 10:30N 47°38' W 002°46'0 0.0
2018-Feb-20 10:00N 47°38' W 002°46'0 0.0
2018-Feb-20 09:30N 47°38' W 002°46'2 3.3
2018-Feb-20 09:00N 47°37' W 002°47'4 8.1
2018-Feb-20 08:31N 47°35' W 002°52'4 8.9
2018-Feb-20 08:00N 47°31' W 002°56'5 9.3
2018-Feb-20 07:30N 47°28' W 003°00'4 8.9
2018-Feb-20 07:01N 47°24' W 003°05'4 8.9
2018-Feb-20 06:30N 47°21' W 003°09'0 0.0
2018-Feb-19 16:01N 47°21' W 003°09'0 2.0
2018-Feb-19 15:59N 47°21' W 003°09'0 0.8
2018-Feb-19 15:30N 47°21' W 003°09'0 0.0
2018-Feb-19 15:00N 47°21' W 003°09'0 0.0
2018-Feb-19 14:30N 47°21' W 003°09'0 0.0
2018-Feb-19 14:00N 47°21' W 003°09'3 5.2
2018-Feb-19 13:30N 47°23' W 003°07'4 8.6
2018-Feb-19 13:01N 47°27' W 003°02'4 8.8
2018-Feb-19 12:30N 47°30' W 002°58'510.5
2018-Feb-19 12:01N 47°34' W 002°54'510.0
2018-Feb-19 11:30N 47°37' W 002°48'2 4.1
2018-Feb-19 11:00N 47°38' W 002°46'0 0.0
2018-Feb-19 10:30N 47°38' W 002°46'  
2018-Feb-16 09:25N 47°38' W 002°46'0 0.0
2018-Feb-16 09:00N 47°38' W 002°46'0 0.0
2018-Feb-16 08:30N 47°38' W 002°46'0 0.0
2018-Feb-14 20:03N 47°38' W 002°46'0 0.8
2018-Feb-14 20:00N 47°38' W 002°46'3 5.5
2018-Feb-14 19:30N 47°37' W 002°49'4 7.3
2018-Feb-14 19:01N 47°34' W 002°53'3 5.2
2018-Feb-14 18:30N 47°32' W 002°55'4 8.5
2018-Feb-14 18:01N 47°29' W 002°59'4 8.6
2018-Feb-14 17:30N 47°26' W 003°04'4 8.6
2018-Feb-14 17:00N 47°23' W 003°08'2 0.7
2018-Feb-14 14:03N 47°21' W 003°09'0 4.0
2018-Feb-14 14:01N 47°21' W 003°09'0 0.9
2018-Feb-14 13:30N 47°21' W 003°09'0 0.0
2018-Feb-14 13:00N 47°21' W 003°09'0 0.5
2018-Feb-14 12:30N 47°21' W 003°09'4 8.0
2018-Feb-14 12:00N 47°25' W 003°05'3 6.2
2018-Feb-14 11:31N 47°26' W 003°01'3 6.9
2018-Feb-14 11:00N 47°29' W 002°58'4 7.2
2018-Feb-14 10:31N 47°32' W 002°55'5 9.4
2018-Feb-14 10:00N 47°36' W 002°52'4 7.9
2018-Feb-14 09:30N 47°38' W 002°46'1 0.0
2018-Feb-13 15:41N 47°38' W 002°46'0 0.7
2018-Feb-13 15:30N 47°38' W 002°46'3 6.8
2018-Feb-13 15:00N 47°37' W 002°50'510.0
2018-Feb-13 14:31N 47°33' W 002°55'5 9.1
2018-Feb-13 14:00N 47°29' W 002°58'510.0
2018-Feb-13 13:30N 47°26' W 003°04'4 7.6
2018-Feb-13 13:00N 47°23' W 003°08'2 0.2
2018-Feb-13 00:17N 47°21' W 003°09'1 1.9
2018-Feb-13 00:00N 47°21' W 003°09'0 0.0
2018-Feb-12 23:30N 47°21' W 003°09'0 0.0
2018-Feb-12 23:00N 47°21' W 003°09'3 5.9
2018-Feb-12 22:30N 47°24' W 003°07'4 8.1
2018-Feb-12 22:00N 47°27' W 003°02'4 8.4
2018-Feb-12 21:30N 47°29' W 002°58'4 8.7
2018-Feb-12 21:00N 47°33' W 002°55'5 9.5
2018-Feb-12 20:30N 47°37' W 002°50'3 6.1
2018-Feb-12 20:00N 47°38' W 002°46'1 1.2
2018-Feb-12 19:30N 47°38' W 002°46'  

Dump ship's entire track history